createdAt,value
2023-01-10T00:00:23.011Z,1.9
2023-01-10T00:01:39.300Z,2.1
2023-01-10T00:02:55.596Z,2.1
2023-01-10T00:04:10.900Z,2.3
2023-01-10T00:05:27.193Z,2.5
2023-01-10T00:06:43.494Z,2
2023-01-10T00:07:59.776Z,2.4
2023-01-10T00:09:16.079Z,2.2
2023-01-10T00:10:32.375Z,2.7
2023-01-10T00:11:48.668Z,2.4
2023-01-10T00:13:04.962Z,2.5
2023-01-10T00:14:21.244Z,2.5
2023-01-10T00:15:37.561Z,2.4
2023-01-10T00:16:53.845Z,2.4
2023-01-10T00:18:10.135Z,2.4
2023-01-10T00:19:26.429Z,2.8
2023-01-10T00:20:41.741Z,2.6
2023-01-10T00:21:58.028Z,2.5
2023-01-10T00:23:14.332Z,2.6
2023-01-10T00:24:30.625Z,2.3
2023-01-10T00:25:46.920Z,2.5
2023-01-10T00:27:03.209Z,2.6
2023-01-10T00:28:19.487Z,2.5
2023-01-10T00:29:35.798Z,2.5
2023-01-10T00:30:52.084Z,2.6
2023-01-10T00:32:08.367Z,2.5
2023-01-10T00:33:24.674Z,2.8
2023-01-10T00:34:40.968Z,2.6
2023-01-10T00:35:57.270Z,2.8
2023-01-10T00:37:12.570Z,2.6
2023-01-10T00:38:28.862Z,2.8
2023-01-10T00:39:45.161Z,3
2023-01-10T00:41:01.439Z,2.9
2023-01-10T00:42:17.744Z,3.1
2023-01-10T00:43:34.039Z,2.5
2023-01-10T00:44:50.335Z,2.7
2023-01-10T00:46:06.614Z,2.9
2023-01-10T00:47:22.921Z,2.7
2023-01-10T00:48:39.213Z,3
2023-01-10T00:49:55.511Z,2.8
2023-01-10T00:51:11.787Z,2.9
2023-01-10T00:52:28.092Z,3.2
2023-01-10T00:53:43.408Z,3.1
2023-01-10T00:54:59.703Z,2.8
2023-01-10T00:56:15.980Z,3.1
2023-01-10T00:57:32.286Z,2.8
2023-01-10T00:58:48.590Z,3.1
2023-01-10T01:00:04.871Z,2.7
2023-01-10T01:01:21.176Z,2.9
2023-01-10T01:02:37.458Z,2.9
2023-01-10T01:03:53.743Z,3
2023-01-10T01:05:10.045Z,3.1
2023-01-10T01:06:26.334Z,3.1
2023-01-10T01:07:42.637Z,3
2023-01-10T01:08:58.927Z,3.1
2023-01-10T01:10:14.223Z,2.8
2023-01-10T01:11:30.534Z,3
2023-01-10T01:12:46.821Z,3.1
2023-01-10T01:14:03.118Z,2.8
2023-01-10T01:15:19.406Z,3.2
2023-01-10T01:16:35.707Z,2.9
2023-01-10T01:17:52.011Z,3
2023-01-10T01:19:08.305Z,3
2023-01-10T01:20:24.574Z,3.1
2023-01-10T01:21:40.873Z,3
2023-01-10T01:22:57.185Z,3
2023-01-10T01:24:13.452Z,3.3
2023-01-10T01:25:29.760Z,3.3
2023-01-10T01:26:45.064Z,3.4
2023-01-10T01:28:01.364Z,3.3
2023-01-10T01:29:17.639Z,2.8
2023-01-10T01:30:33.939Z,3.4
2023-01-10T01:31:50.228Z,3
2023-01-10T01:33:06.533Z,3.2
2023-01-10T01:34:22.828Z,3.1
2023-01-10T01:35:39.127Z,3
2023-01-10T01:36:55.407Z,2.9
2023-01-10T01:38:11.706Z,3.4
2023-01-10T01:39:28.013Z,3.5
2023-01-10T01:40:44.302Z,3.1
2023-01-10T01:42:00.601Z,3.3
2023-01-10T01:43:15.885Z,3.2
2023-01-10T01:44:32.182Z,3.2
2023-01-10T01:45:48.490Z,3
2023-01-10T01:47:04.765Z,3.7
2023-01-10T01:48:21.064Z,3.8
2023-01-10T01:49:37.360Z,3.5
2023-01-10T01:50:53.644Z,2.9
2023-01-10T01:52:09.953Z,3.7
2023-01-10T01:53:26.245Z,3.1
2023-01-10T01:54:42.539Z,3.6
2023-01-10T01:55:58.835Z,3.8
2023-01-10T01:57:15.115Z,3.4
2023-01-10T01:58:31.415Z,3.2
2023-01-10T01:59:46.731Z,3.8
2023-01-10T02:01:03.023Z,3.5
2023-01-10T02:02:19.317Z,3.8
2023-01-10T02:03:35.618Z,3.6
2023-01-10T02:04:51.910Z,3.6
2023-01-10T02:06:08.186Z,3.5
2023-01-10T02:07:24.488Z,3.7
2023-01-10T02:08:40.784Z,3.3
2023-01-10T02:09:57.076Z,3.4
2023-01-10T02:11:13.367Z,3.6
2023-01-10T02:12:29.660Z,3.6
2023-01-10T02:13:45.949Z,3.7
2023-01-10T02:15:02.243Z,3.7
2023-01-10T02:16:17.551Z,3.7
2023-01-10T02:17:33.849Z,4
2023-01-10T02:18:50.132Z,3.7
2023-01-10T02:20:06.427Z,3.7
2023-01-10T02:21:22.734Z,3.7
2023-01-10T02:22:39.033Z,3.6
2023-01-10T02:23:55.324Z,3.8
2023-01-10T02:25:11.601Z,3.6
2023-01-10T02:26:27.907Z,3.8
2023-01-10T02:27:44.199Z,3.7
2023-01-10T02:29:00.490Z,3.9
2023-01-10T02:30:16.780Z,3.9
2023-01-10T02:31:33.098Z,4.2
2023-01-10T02:32:48.382Z,3.9
2023-01-10T02:34:04.684Z,3.9
2023-01-10T02:35:20.972Z,3.9
2023-01-10T02:36:37.269Z,4.3
2023-01-10T02:37:53.577Z,3.8
2023-01-10T02:39:09.846Z,3.9
2023-01-10T02:40:26.142Z,3.9
2023-01-10T02:41:42.440Z,4.1
2023-01-10T02:42:58.738Z,4
2023-01-10T02:44:15.030Z,3.7
2023-01-10T02:45:31.325Z,3.8
2023-01-10T02:46:47.629Z,4.1
2023-01-10T02:48:03.917Z,4.3
2023-01-10T02:49:19.212Z,4.1
2023-01-10T02:50:35.517Z,3.9
2023-01-10T02:51:51.815Z,4
2023-01-10T02:53:08.102Z,3.7
2023-01-10T02:54:24.385Z,4.1
2023-01-10T02:55:40.687Z,4.1
2023-01-10T02:56:56.974Z,4.1
2023-01-10T02:58:13.285Z,4.3
2023-01-10T02:59:29.570Z,4.1
2023-01-10T03:00:45.877Z,3.7
2023-01-10T03:02:02.156Z,4.4
2023-01-10T03:03:18.450Z,3.8
2023-01-10T03:04:34.764Z,4.1
2023-01-10T03:05:50.060Z,4
2023-01-10T03:07:06.342Z,4.5
2023-01-10T03:08:22.654Z,4.1
2023-01-10T03:09:38.942Z,4.4
2023-01-10T03:10:55.218Z,4.2
2023-01-10T03:12:11.517Z,3.9
2023-01-10T03:13:27.816Z,3.8
2023-01-10T03:14:44.118Z,4.7
2023-01-10T03:16:00.410Z,4
2023-01-10T03:17:16.687Z,4.2
2023-01-10T03:18:32.995Z,4
2023-01-10T03:19:49.302Z,4.1
2023-01-10T03:21:05.587Z,4.1
2023-01-10T03:22:20.875Z,4.5
2023-01-10T03:23:37.188Z,4.2
2023-01-10T03:24:53.462Z,4.1
2023-01-10T03:26:09.767Z,4
2023-01-10T03:27:26.062Z,4
2023-01-10T03:28:42.344Z,3.8
2023-01-10T03:29:58.643Z,4.1
2023-01-10T03:31:14.934Z,4.2
2023-01-10T03:32:31.230Z,4.1
2023-01-10T03:33:47.531Z,4.2
2023-01-10T03:35:03.829Z,4.4
2023-01-10T03:36:20.125Z,4.3
2023-01-10T03:37:36.403Z,4.2
2023-01-10T03:38:51.719Z,4.5
2023-01-10T03:40:08.009Z,4.3
2023-01-10T03:41:24.309Z,4.7
2023-01-10T03:42:40.600Z,4.4
2023-01-10T03:43:56.897Z,4.3
2023-01-10T03:45:13.000Z,4
2023-01-10T03:46:29.487Z,4.6
2023-01-10T03:47:45.764Z,4.2
2023-01-10T03:49:02.067Z,4.8
2023-01-10T03:50:18.366Z,4.4
2023-01-10T03:51:34.657Z,4.6
2023-01-10T03:52:50.938Z,3.9
2023-01-10T03:54:07.255Z,4.5
2023-01-10T03:55:22.553Z,4.4
2023-01-10T03:56:38.856Z,4.4
2023-01-10T03:57:55.133Z,4.5
2023-01-10T03:59:11.436Z,4.2
2023-01-10T04:00:27.717Z,4
2023-01-10T04:01:44.025Z,4.4
2023-01-10T04:03:00.315Z,4.1
2023-01-10T04:04:16.599Z,4
2023-01-10T04:05:32.904Z,4.2
2023-01-10T04:06:49.194Z,4
2023-01-10T04:08:05.487Z,4.2
2023-01-10T04:09:21.791Z,4.3
2023-01-10T04:10:38.073Z,4.5
2023-01-10T04:11:53.395Z,4.3
2023-01-10T04:13:09.684Z,4.1
2023-01-10T04:14:25.977Z,4
2023-01-10T04:15:42.260Z,4.3
2023-01-10T04:16:58.559Z,4.3
2023-01-10T04:18:14.839Z,4
2023-01-10T04:19:30.167Z,3.8
2023-01-10T04:20:46.000Z,3.9
2023-01-10T04:22:02.761Z,4.2
2023-01-10T04:23:19.035Z,4.5
2023-01-10T04:24:35.327Z,4.1
2023-01-10T04:25:51.625Z,4.4
2023-01-10T04:27:07.942Z,4.1
2023-01-10T04:28:24.225Z,4.3
2023-01-10T04:29:40.502Z,4.5
2023-01-10T04:30:56.798Z,4.1
2023-01-10T04:32:13.094Z,4
2023-01-10T04:33:29.382Z,5.1
2023-01-10T04:34:45.694Z,4
2023-01-10T04:36:01.003Z,3.9
2023-01-10T04:37:17.290Z,3.9
2023-01-10T04:38:33.574Z,4.1
2023-01-10T04:39:49.874Z,3.8
2023-01-10T04:41:06.176Z,4.1
2023-01-10T04:42:22.452Z,3.7
2023-01-10T04:43:38.770Z,3.5
2023-01-10T04:44:55.053Z,3.9
2023-01-10T04:46:11.345Z,3.7
2023-01-10T04:47:27.629Z,3.8
2023-01-10T04:48:43.930Z,4.2
2023-01-10T04:50:00.215Z,4.2
2023-01-10T04:51:16.532Z,4.2
2023-01-10T04:52:31.818Z,4.1
2023-01-10T04:53:48.126Z,4.1
2023-01-10T04:55:04.425Z,4
2023-01-10T04:56:20.701Z,4.2
2023-01-10T04:57:37.013Z,4.3
2023-01-10T04:58:53.288Z,4.3
2023-01-10T05:00:09.593Z,5
2023-01-10T05:01:25.874Z,4.5
2023-01-10T05:02:42.172Z,3.8
2023-01-10T05:03:58.464Z,4.4
2023-01-10T05:05:14.777Z,4.4
2023-01-10T05:06:31.060Z,4.3
2023-01-10T05:07:47.362Z,3.8
2023-01-10T05:09:02.658Z,4.1
2023-01-10T05:10:18.956Z,4.8
2023-01-10T05:11:35.249Z,4
2023-01-10T05:12:51.537Z,4.8
2023-01-10T05:14:07.839Z,4.5
2023-01-10T05:15:24.119Z,4.6
2023-01-10T05:16:40.426Z,4.6
2023-01-10T05:17:56.726Z,4.6
2023-01-10T05:19:12.996Z,4.5
2023-01-10T05:20:29.298Z,4.4
2023-01-10T05:21:45.592Z,5.6
2023-01-10T05:23:01.885Z,4.6
2023-01-10T05:24:18.189Z,4.5
2023-01-10T05:25:33.493Z,4.3
2023-01-10T05:26:49.796Z,4.2
2023-01-10T05:28:06.072Z,4.5
2023-01-10T05:29:22.363Z,4.2
2023-01-10T05:30:38.656Z,4.3
2023-01-10T05:31:54.947Z,4.3
2023-01-10T05:33:11.248Z,4.2
2023-01-10T05:34:27.542Z,3.7
2023-01-10T05:35:43.838Z,4.4
2023-01-10T05:37:00.132Z,4.6
2023-01-10T05:38:16.434Z,4.3
2023-01-10T05:39:32.724Z,3.8
2023-01-10T05:40:49.012Z,3.8
2023-01-10T05:42:04.326Z,4.7
2023-01-10T05:43:20.631Z,4.4
2023-01-10T05:44:36.902Z,4.3
2023-01-10T05:45:53.218Z,4.8
2023-01-10T05:47:09.518Z,4.7
2023-01-10T05:48:25.785Z,4.4
2023-01-10T05:49:42.088Z,4.3
2023-01-10T05:50:58.384Z,4.3
2023-01-10T05:52:14.674Z,4.1
2023-01-10T05:53:30.973Z,4.1
2023-01-10T05:54:47.272Z,4.2
2023-01-10T05:56:03.552Z,5.1
2023-01-10T05:57:19.855Z,4.5
2023-01-10T05:58:35.153Z,4.5
2023-01-10T05:59:51.472Z,4.8
2023-01-10T06:01:07.751Z,5
2023-01-10T06:02:24.030Z,4.3
2023-01-10T06:03:40.342Z,5.9
2023-01-10T06:04:56.636Z,4.9
2023-01-10T06:06:12.913Z,4.7
2023-01-10T06:07:29.212Z,4.3
2023-01-10T06:08:45.510Z,4.9
2023-01-10T06:10:01.787Z,4.4
2023-01-10T06:11:18.080Z,4.3
2023-01-10T06:12:34.386Z,4.4
2023-01-10T06:13:50.672Z,5.1
2023-01-10T06:15:05.980Z,5
2023-01-10T06:16:22.288Z,4.8
2023-01-10T06:17:38.563Z,5.3
2023-01-10T06:18:54.877Z,6.3
2023-01-10T06:20:11.168Z,6.5
2023-01-10T06:21:27.473Z,7
2023-01-10T06:22:43.739Z,5.5
2023-01-10T06:24:00.061Z,5.7
2023-01-10T06:25:16.350Z,5.8
2023-01-10T06:26:32.633Z,5.3
2023-01-10T06:27:48.924Z,5.4
2023-01-10T06:29:05.204Z,5.2
2023-01-10T06:30:21.503Z,5.2
2023-01-10T06:31:36.820Z,5.7
2023-01-10T06:32:53.103Z,6.4
2023-01-10T06:34:09.412Z,5
2023-01-10T06:35:25.703Z,4.6
2023-01-10T06:36:42.000Z,4.5
2023-01-10T06:37:58.297Z,4.9
2023-01-10T06:39:14.583Z,5.1
2023-01-10T06:40:30.878Z,4.5
2023-01-10T06:41:47.179Z,4.1
2023-01-10T06:43:03.451Z,4.1
2023-01-10T06:44:19.751Z,4.5
2023-01-10T06:45:36.042Z,5.1
2023-01-10T06:46:52.331Z,4.4
2023-01-10T06:48:07.604Z,5.1
2023-01-10T06:49:23.908Z,4.7
2023-01-10T06:50:40.144Z,7.9
2023-01-10T06:51:56.425Z,12
2023-01-10T06:53:12.742Z,9.8
2023-01-10T06:54:28.985Z,9.7
2023-01-10T06:55:45.226Z,6.4
2023-01-10T06:57:01.465Z,7.7
2023-01-10T06:58:17.743Z,8
2023-01-10T06:59:34.006Z,6.3
2023-01-10T07:00:50.242Z,5.8
2023-01-10T07:02:06.493Z,5
2023-01-10T07:03:22.729Z,5.8
2023-01-10T07:04:37.997Z,5.8
2023-01-10T07:05:54.209Z,5.5
2023-01-10T07:07:10.455Z,4.9
2023-01-10T07:08:26.697Z,5.3
2023-01-10T07:09:42.942Z,4.9
2023-01-10T07:10:59.170Z,4.5
2023-01-10T07:12:15.422Z,4.3
2023-01-10T07:13:31.662Z,4.6
2023-01-10T07:14:47.914Z,4.9
2023-01-10T07:16:04.136Z,4.8
2023-01-10T07:17:20.385Z,5.8
2023-01-10T07:18:36.602Z,5
2023-01-10T07:19:52.859Z,5.1
2023-01-10T07:21:08.097Z,4.6
2023-01-10T07:22:24.343Z,4.9
2023-01-10T07:23:40.585Z,4.9
2023-01-10T07:24:56.824Z,4.6
2023-01-10T07:26:13.053Z,4.6
2023-01-10T07:27:29.295Z,4.1
2023-01-10T07:28:45.542Z,4.6
2023-01-10T07:30:01.799Z,4.5
2023-01-10T07:31:18.011Z,4.7
2023-01-10T07:32:34.265Z,4.4
2023-01-10T07:33:50.510Z,4.5
2023-01-10T07:35:06.737Z,3.9
2023-01-10T07:36:22.985Z,4.5
2023-01-10T07:37:38.254Z,4.8
2023-01-10T07:38:54.481Z,4.8
2023-01-10T07:40:10.724Z,4.8
2023-01-10T07:41:26.944Z,5.4
2023-01-10T07:42:43.185Z,4.7
2023-01-10T07:43:59.436Z,4.6
2023-01-10T07:45:15.663Z,5
2023-01-10T07:46:31.905Z,4.5
2023-01-10T07:47:48.142Z,4.1
2023-01-10T07:49:04.383Z,3.6
2023-01-10T07:50:20.643Z,4
2023-01-10T07:51:36.866Z,4
2023-01-10T07:52:53.122Z,3.8
2023-01-10T07:54:08.372Z,3.6
2023-01-10T07:55:24.595Z,3.7
2023-01-10T07:56:40.844Z,3.7
2023-01-10T07:57:57.093Z,3.7
2023-01-10T07:59:13.312Z,3.4
2023-01-10T08:00:29.558Z,3.3
2023-01-10T08:01:45.807Z,3.4
2023-01-10T08:03:02.047Z,3.6
2023-01-10T08:04:18.271Z,3.3
2023-01-10T08:05:34.511Z,3.8
2023-01-10T08:06:50.764Z,3.2
2023-01-10T08:08:07.014Z,3.9
2023-01-10T08:09:23.238Z,3.5
2023-01-10T08:10:38.499Z,3.4
2023-01-10T08:11:54.743Z,3.4
2023-01-10T08:13:10.964Z,3.6
2023-01-10T08:14:27.220Z,3.5
2023-01-10T08:15:43.465Z,3.2
2023-01-10T08:16:59.703Z,3.1
2023-01-10T08:18:15.954Z,3.3
2023-01-10T08:19:32.173Z,3.1
2023-01-10T08:20:48.419Z,3.2
2023-01-10T08:22:04.643Z,3.5
2023-01-10T08:23:20.899Z,3.1
2023-01-10T08:24:37.143Z,2.8
2023-01-10T08:25:53.387Z,2.9
2023-01-10T08:27:08.629Z,2.6
2023-01-10T08:28:24.873Z,3.3
2023-01-10T08:29:41.098Z,2.6
2023-01-10T08:30:57.334Z,2.8
2023-01-10T08:32:13.593Z,3.5
2023-01-10T08:33:29.832Z,3.1
2023-01-10T08:34:45.082Z,2.6
2023-01-10T08:36:01.327Z,2.8
2023-01-10T08:37:17.571Z,3.4
2023-01-10T08:38:33.821Z,2.9
2023-01-10T08:39:50.047Z,3
2023-01-10T08:41:06.272Z,3
2023-01-10T08:42:22.522Z,4.7
2023-01-10T08:43:38.774Z,4.4
2023-01-10T08:44:54.997Z,3.9
2023-01-10T08:46:11.257Z,3.8
2023-01-10T08:47:27.485Z,4.5
2023-01-10T08:48:43.733Z,4.3
2023-01-10T08:49:59.952Z,3.7
2023-01-10T08:51:15.228Z,3.9
2023-01-10T08:52:31.446Z,3.5
2023-01-10T08:53:47.685Z,3.3
2023-01-10T08:55:03.941Z,3.2
2023-01-10T08:56:20.164Z,3.5
2023-01-10T08:57:36.408Z,3.1
2023-01-10T08:58:52.658Z,3
2023-01-10T09:00:08.902Z,3.3
2023-01-10T09:01:25.125Z,3
2023-01-10T09:02:41.381Z,3.4
2023-01-10T09:03:57.618Z,2.9
2023-01-10T09:05:13.845Z,2.8
2023-01-10T09:06:30.111Z,2.7
2023-01-10T09:07:45.366Z,2.9
2023-01-10T09:09:01.588Z,3.3
2023-01-10T09:10:17.822Z,2.6
2023-01-10T09:11:34.086Z,2.9
2023-01-10T09:12:50.296Z,3.2
2023-01-10T09:14:06.560Z,3.3
2023-01-10T09:15:22.772Z,3
2023-01-10T09:16:39.019Z,3.4
2023-01-10T09:17:55.251Z,3.6
2023-01-10T09:19:11.496Z,3.3
2023-01-10T09:20:27.732Z,3.5
2023-01-10T09:21:43.995Z,3.4
2023-01-10T09:23:00.208Z,3.6
2023-01-10T09:24:15.482Z,3.8
2023-01-10T09:25:31.715Z,3.9
2023-01-10T09:26:47.947Z,2.8
2023-01-10T09:28:04.190Z,2.8
2023-01-10T09:29:20.430Z,3
2023-01-10T09:30:36.663Z,3.2
2023-01-10T09:31:52.927Z,2.9
2023-01-10T09:33:09.164Z,3.1
2023-01-10T09:34:25.379Z,3.3
2023-01-10T09:35:41.634Z,3
2023-01-10T09:36:57.888Z,3.1
2023-01-10T09:38:14.113Z,3.2
2023-01-10T09:39:30.360Z,2.9
2023-01-10T09:40:45.597Z,2.7
2023-01-10T09:42:01.856Z,2.7
2023-01-10T09:43:18.075Z,3.3
2023-01-10T09:44:34.320Z,3.2
2023-01-10T09:45:50.550Z,3.1
2023-01-10T09:47:06.811Z,2.8
2023-01-10T09:48:23.029Z,2.8
2023-01-10T09:49:39.303Z,2.8
2023-01-10T09:50:55.507Z,3.7
2023-01-10T09:52:11.749Z,3
2023-01-10T09:53:27.987Z,3
2023-01-10T09:54:44.256Z,3
2023-01-10T09:57:16.707Z,2.8
2023-01-10T09:58:31.964Z,3
2023-01-10T09:59:48.198Z,2.7
2023-01-10T10:01:04.448Z,2.8
2023-01-10T10:02:20.696Z,3
2023-01-10T10:03:36.919Z,2.5
2023-01-10T10:04:53.161Z,2.9
2023-01-10T10:06:09.398Z,2.7
2023-01-10T10:07:25.652Z,2.8
2023-01-10T10:08:41.874Z,2.7
2023-01-10T10:09:58.139Z,2.6
2023-01-10T10:11:14.385Z,3.1
2023-01-10T10:12:30.621Z,2.6
2023-01-10T10:13:46.841Z,2.7
2023-01-10T10:15:02.096Z,2.5
2023-01-10T10:16:18.336Z,3
2023-01-10T10:17:34.587Z,2.5
2023-01-10T10:18:50.830Z,2.4
2023-01-10T10:20:07.077Z,2.4
2023-01-10T10:21:23.292Z,2.8
2023-01-10T10:22:39.552Z,3
2023-01-10T10:23:55.796Z,2.2
2023-01-10T10:25:12.015Z,2.3
2023-01-10T10:26:28.262Z,2.5
2023-01-10T10:27:44.491Z,2.3
2023-01-10T10:29:00.724Z,3.4
2023-01-10T10:30:16.978Z,2.5
2023-01-10T10:31:32.229Z,2.7
2023-01-10T10:32:48.478Z,2.6
2023-01-10T10:34:04.714Z,3
2023-01-10T10:35:20.967Z,2.8
2023-01-10T10:36:37.176Z,2.4
2023-01-10T10:37:53.430Z,3.1
2023-01-10T10:39:09.000Z,2.3
2023-01-10T10:40:25.903Z,2.6
2023-01-10T10:41:42.161Z,2.6
2023-01-10T10:42:58.382Z,2.6
2023-01-10T10:44:14.614Z,2.8
2023-01-10T10:45:30.854Z,2.1
2023-01-10T10:46:47.093Z,2.4
2023-01-10T10:48:02.348Z,2.7
2023-01-10T10:49:18.616Z,2.6
2023-01-10T10:50:34.825Z,2.9
2023-01-10T10:51:51.065Z,2.4
2023-01-10T10:53:07.313Z,2.3
2023-01-10T10:54:23.555Z,2.2
2023-01-10T10:55:39.798Z,2.3
2023-01-10T10:56:56.050Z,3
2023-01-10T10:58:12.291Z,2.2
2023-01-10T10:59:28.500Z,2.4
2023-01-10T11:00:44.752Z,2.5
2023-01-10T11:02:00.985Z,2.3
2023-01-10T11:03:17.222Z,2.3
2023-01-10T11:04:32.476Z,2.4
2023-01-10T11:05:48.742Z,2.4
2023-01-10T11:07:04.958Z,2.1
2023-01-10T11:08:21.201Z,2
2023-01-10T11:09:37.437Z,2
2023-01-10T11:10:53.690Z,2
2023-01-10T11:12:09.915Z,1.8
2023-01-10T11:13:26.171Z,1.9
2023-01-10T11:14:42.402Z,2.1
2023-01-10T11:15:58.651Z,2
2023-01-10T11:17:14.892Z,1.8
2023-01-10T11:18:31.121Z,2.1
2023-01-10T11:19:47.360Z,2
2023-01-10T11:21:02.000Z,1.7
2023-01-10T11:22:18.853Z,1.9
2023-01-10T11:23:35.093Z,1.9
2023-01-10T11:24:51.331Z,2.1
2023-01-10T11:26:07.597Z,1.7
2023-01-10T11:27:23.834Z,2
2023-01-10T11:28:40.070Z,1.8
2023-01-10T11:29:56.287Z,1.7
2023-01-10T11:31:12.543Z,1.7
2023-01-10T11:32:28.766Z,2.2
2023-01-10T11:33:45.003Z,2.6
2023-01-10T11:35:01.252Z,1.9
2023-01-10T11:36:17.508Z,1.9
2023-01-10T11:37:32.741Z,1.9
2023-01-10T11:38:48.997Z,2
2023-01-10T11:40:05.220Z,2
2023-01-10T11:41:21.456Z,2.3
2023-01-10T11:42:37.696Z,3.4
2023-01-10T11:43:53.960Z,2.8
2023-01-10T11:45:10.192Z,2.6
2023-01-10T11:46:26.415Z,3
2023-01-10T11:47:42.656Z,3.7
2023-01-10T11:48:58.897Z,2.7
2023-01-10T11:50:15.137Z,2.6
2023-01-10T11:51:31.376Z,2.7
2023-01-10T11:52:47.613Z,2.5
2023-01-10T11:54:02.872Z,3
2023-01-10T11:55:19.111Z,4.1
2023-01-10T11:56:35.372Z,3.5
2023-01-10T11:57:51.598Z,2.7
2023-01-10T11:59:07.826Z,2.5
2023-01-10T12:00:24.068Z,2
2023-01-10T12:01:40.306Z,1.9
2023-01-10T12:02:56.550Z,1.6
2023-01-10T12:04:12.800Z,2.4
2023-01-10T12:05:29.042Z,2.5
2023-01-10T12:06:45.268Z,2.5
2023-01-10T12:08:01.514Z,3.2
2023-01-10T12:09:17.768Z,2.3
2023-01-10T12:10:33.001Z,2
2023-01-10T12:11:49.259Z,2
2023-01-10T12:13:05.502Z,1.7
2023-01-10T12:14:21.745Z,1.7
2023-01-10T12:15:37.981Z,1.7
2023-01-10T12:16:54.202Z,2.3
2023-01-10T12:18:10.440Z,1.8
2023-01-10T12:19:26.692Z,2.5
2023-01-10T12:20:42.937Z,3
2023-01-10T12:21:59.164Z,2.6
2023-01-10T12:23:15.418Z,2
2023-01-10T12:24:31.660Z,1.7
2023-01-10T12:25:47.891Z,1.6
2023-01-10T12:27:03.149Z,2.3
2023-01-10T12:28:19.379Z,2
2023-01-10T12:29:35.633Z,1.8
2023-01-10T12:30:51.885Z,1.6
2023-01-10T12:32:08.100Z,2.4
2023-01-10T12:33:24.360Z,1.7
2023-01-10T12:34:40.573Z,1.9
2023-01-10T12:35:56.810Z,2.2
2023-01-10T12:37:13.052Z,1.8
2023-01-10T12:38:29.288Z,1.9
2023-01-10T12:39:45.529Z,2
2023-01-10T12:41:01.768Z,1.8
2023-01-10T12:42:18.034Z,1.7
2023-01-10T12:43:33.270Z,2.2
2023-01-10T12:44:49.510Z,2
2023-01-10T12:46:05.740Z,2
2023-01-10T12:47:21.999Z,2.5
2023-01-10T12:48:38.234Z,2.1
2023-01-10T12:49:53.482Z,2
2023-01-10T12:51:09.739Z,2
2023-01-10T12:52:25.979Z,2.2
2023-01-10T12:53:42.204Z,2.1
2023-01-10T12:54:58.443Z,1.9
2023-01-10T12:56:14.685Z,2
2023-01-10T12:57:30.923Z,2.1
2023-01-10T12:58:47.162Z,2.1
2023-01-10T13:00:03.412Z,2.5
2023-01-10T13:01:19.633Z,2.4
2023-01-10T13:02:35.886Z,2.3
2023-01-10T13:03:52.119Z,3.5
2023-01-10T13:05:08.374Z,2
2023-01-10T13:06:23.610Z,2
2023-01-10T13:07:39.876Z,2.2
2023-01-10T13:08:56.094Z,2.8
2023-01-10T13:10:12.341Z,2.5
2023-01-10T13:11:28.583Z,2.2
2023-01-10T13:12:44.830Z,2.5
2023-01-10T13:14:01.058Z,2.1
2023-01-10T13:15:17.283Z,2.2
2023-01-10T13:16:33.528Z,2.5
2023-01-10T13:17:49.774Z,2.4
2023-01-10T13:20:22.245Z,2
2023-01-10T13:21:38.491Z,2.5
2023-01-10T13:22:53.750Z,2.2
2023-01-10T13:24:09.993Z,2.8
2023-01-10T13:25:26.244Z,2.3
2023-01-10T13:26:42.456Z,2.3
2023-01-10T13:27:58.696Z,2.6
2023-01-10T13:29:14.946Z,2.5
2023-01-10T13:30:31.174Z,2.5
2023-01-10T13:31:47.426Z,2.3
2023-01-10T13:33:03.668Z,2.3
2023-01-10T13:34:19.908Z,2.5
2023-01-10T13:35:36.152Z,2.1
2023-01-10T13:36:52.382Z,2.6
2023-01-10T13:38:08.619Z,2.6
2023-01-10T13:39:23.865Z,2.6
2023-01-10T13:40:40.119Z,2.8
2023-01-10T13:41:56.352Z,2.6
2023-01-10T13:43:12.609Z,2.7
2023-01-10T13:44:28.851Z,2.9
2023-01-10T13:45:45.065Z,2.4
2023-01-10T13:47:01.305Z,2.8
2023-01-10T13:48:17.549Z,2.6
2023-01-10T13:49:33.787Z,2.8
2023-01-10T13:50:50.049Z,2.8
2023-01-10T13:52:06.280Z,3.4
2023-01-10T13:53:22.509Z,2.8
2023-01-10T13:54:38.743Z,2.3
2023-01-10T13:55:54.020Z,2.5
2023-01-10T13:57:10.248Z,2.8
2023-01-10T13:58:26.484Z,3.1
2023-01-10T13:59:42.716Z,2.7
2023-01-10T14:00:58.962Z,2.8
2023-01-10T14:02:15.196Z,3.1
2023-01-10T14:03:31.451Z,2.9
2023-01-10T14:04:47.683Z,3.4
2023-01-10T14:06:03.911Z,2.6
2023-01-10T14:07:20.165Z,2.7
2023-01-10T14:08:36.412Z,2.8
2023-01-10T14:09:52.644Z,2.7
2023-01-10T14:11:08.875Z,2.9
2023-01-10T14:12:24.143Z,2.3
2023-01-10T14:13:40.376Z,4.1
2023-01-10T14:14:56.619Z,3.6
2023-01-10T14:16:12.854Z,2.6
2023-01-10T14:17:29.083Z,2.8
2023-01-10T14:18:45.337Z,2.8
2023-01-10T14:20:01.579Z,2.7
2023-01-10T14:21:17.831Z,3.2
2023-01-10T14:22:34.053Z,2.7
2023-01-10T14:23:50.294Z,3.2
2023-01-10T14:25:06.523Z,3.1
2023-01-10T14:26:22.772Z,2.9
2023-01-10T14:27:39.007Z,2.8
2023-01-10T14:28:54.280Z,2.6
2023-01-10T14:30:10.522Z,3
2023-01-10T14:31:26.746Z,2.7
2023-01-10T14:32:42.995Z,3.2
2023-01-10T14:33:59.224Z,2.4
2023-01-10T14:35:15.466Z,2.5
2023-01-10T14:36:31.699Z,2.4
2023-01-10T14:37:47.937Z,2.4
2023-01-10T14:39:04.171Z,3.1
2023-01-10T14:40:20.421Z,2.6
2023-01-10T14:41:36.671Z,2.4
2023-01-10T14:42:52.897Z,2.4
2023-01-10T14:44:09.139Z,2.7
2023-01-10T14:45:24.410Z,2.4
2023-01-10T14:46:40.632Z,2.3
2023-01-10T14:47:56.870Z,2.7
2023-01-10T14:49:13.107Z,2.4
2023-01-10T14:50:29.348Z,2.5
2023-01-10T14:51:45.598Z,2.3
2023-01-10T14:53:01.833Z,2.3
2023-01-10T14:54:18.074Z,2.4
2023-01-10T14:55:34.305Z,2.5
2023-01-10T14:56:50.547Z,2.3
2023-01-10T14:58:06.794Z,2.4
2023-01-10T14:59:23.034Z,2.4
2023-01-10T15:00:39.254Z,2.4
2023-01-10T15:01:55.624Z,2.8
2023-01-10T15:03:11.869Z,2.8
2023-01-10T15:04:28.095Z,2.5
2023-01-10T15:05:44.345Z,2.6
2023-01-10T15:07:00.582Z,2.4
2023-01-10T15:08:16.832Z,2.7
2023-01-10T15:09:33.053Z,2.6
2023-01-10T15:10:49.303Z,3.1
2023-01-10T15:12:05.551Z,2.3
2023-01-10T15:13:21.783Z,2.6
2023-01-10T15:14:38.035Z,2.4
2023-01-10T15:15:54.262Z,2.2
2023-01-10T15:17:10.519Z,2.3
2023-01-10T15:18:25.756Z,2.1
2023-01-10T15:19:41.986Z,2.6
2023-01-10T15:20:58.246Z,2.8
2023-01-10T15:22:14.477Z,2.1
2023-01-10T15:23:30.718Z,2.2
2023-01-10T15:24:46.961Z,1.9
2023-01-10T15:26:03.184Z,2.2
2023-01-10T15:27:19.441Z,2.3
2023-01-10T15:28:35.671Z,1.9
2023-01-10T15:29:51.901Z,2.2
2023-01-10T15:31:08.152Z,2.2
2023-01-10T15:32:24.390Z,2.2
2023-01-10T15:33:40.623Z,2
2023-01-10T15:34:56.984Z,2.1
2023-01-10T15:36:13.239Z,1.9
2023-01-10T15:37:29.475Z,2.1
2023-01-10T15:38:45.725Z,1.8
2023-01-10T15:40:01.950Z,1.9
2023-01-10T15:41:18.181Z,2
2023-01-10T15:42:34.000Z,2.2
2023-01-10T15:43:50.680Z,1.8
2023-01-10T15:45:06.917Z,2.3
2023-01-10T15:46:23.144Z,2.1
2023-01-10T15:47:39.449Z,2.1
2023-01-10T15:48:55.672Z,1.7
2023-01-10T15:50:11.908Z,1.8
2023-01-10T15:51:27.174Z,2
2023-01-10T15:52:43.461Z,1.7
2023-01-10T15:53:59.756Z,1.8
2023-01-10T15:55:16.071Z,2
2023-01-10T15:56:32.345Z,2.5
2023-01-10T15:57:48.633Z,1.9
2023-01-10T15:59:04.935Z,2.5
2023-01-10T16:00:21.231Z,2
2023-01-10T16:01:37.516Z,2.1
2023-01-10T16:02:53.811Z,2.3
2023-01-10T16:04:10.111Z,2.7
2023-01-10T16:05:26.411Z,2.2
2023-01-10T16:06:42.705Z,2.2
2023-01-10T16:07:58.003Z,2.5
2023-01-10T16:09:14.311Z,2.3
2023-01-10T16:10:30.599Z,2.6
2023-01-10T16:11:46.890Z,2.5
2023-01-10T16:13:03.169Z,2.6
2023-01-10T16:14:19.470Z,3.4
2023-01-10T16:15:35.770Z,2.6
2023-01-10T16:16:52.070Z,2.5
2023-01-10T16:18:08.349Z,2.5
2023-01-10T16:19:24.635Z,2.2
2023-01-10T16:20:40.951Z,2.2
2023-01-10T16:21:57.236Z,2.3
2023-01-10T16:23:13.515Z,2.5
2023-01-10T16:24:28.824Z,2.7
2023-01-10T16:25:45.118Z,2.7
2023-01-10T16:27:01.422Z,3.6
2023-01-10T16:28:17.735Z,3.6
2023-01-10T16:29:33.997Z,3.3
2023-01-10T16:30:50.308Z,3.4
2023-01-10T16:32:06.588Z,3.9
2023-01-10T16:33:22.901Z,4.8
2023-01-10T16:34:39.179Z,3.9
2023-01-10T16:35:55.469Z,3.5
2023-01-10T16:37:11.766Z,3.2
2023-01-10T16:38:28.070Z,3.1
2023-01-10T16:39:44.360Z,2.9
2023-01-10T16:40:59.655Z,2.8
2023-01-10T16:42:15.952Z,2.5
2023-01-10T16:43:32.260Z,2.4
2023-01-10T16:44:48.553Z,2.9
2023-01-10T16:46:04.828Z,2.3
2023-01-10T16:47:21.136Z,2.1
2023-01-10T16:48:37.428Z,2.4
2023-01-10T16:49:53.718Z,2.3
2023-01-10T16:51:10.004Z,2.1
2023-01-10T16:52:26.296Z,2.5
2023-01-10T16:53:42.602Z,2.6
2023-01-10T16:54:58.888Z,2.5
2023-01-10T16:56:15.182Z,2.3
2023-01-10T16:57:30.486Z,2.7
2023-01-10T16:58:46.782Z,2.2
2023-01-10T17:00:03.075Z,2.8
2023-01-10T17:01:19.370Z,2.7
2023-01-10T17:02:35.684Z,2.7
2023-01-10T17:05:08.245Z,2.3
2023-01-10T17:06:23.562Z,2.3
2023-01-10T17:07:39.854Z,1.9
2023-01-10T17:08:56.151Z,2.2
2023-01-10T17:10:12.459Z,2.7
2023-01-10T17:11:28.748Z,2.4
2023-01-10T17:12:45.030Z,2.3
2023-01-10T17:14:01.319Z,2.2
2023-01-10T17:15:17.613Z,2.5
2023-01-10T17:16:33.906Z,2.4
2023-01-10T17:17:50.210Z,2.4
2023-01-10T17:19:06.514Z,2.3
2023-01-10T17:20:22.800Z,2.3
2023-01-10T17:21:39.079Z,2.3
2023-01-10T17:22:54.395Z,1.8
2023-01-10T17:24:10.684Z,2.2
2023-01-10T17:25:26.995Z,2.2
2023-01-10T17:26:43.268Z,2.3
2023-01-10T17:27:59.571Z,2.9
2023-01-10T17:29:15.866Z,2.6
2023-01-10T17:30:32.160Z,2.3
2023-01-10T17:31:48.461Z,2.1
2023-01-10T17:33:04.757Z,2.3
2023-01-10T17:34:21.046Z,2.4
2023-01-10T17:35:37.337Z,2.9
2023-01-10T17:36:53.634Z,2.3
2023-01-10T17:38:09.937Z,3
2023-01-10T17:39:25.247Z,3.2
2023-01-10T17:40:41.536Z,2.9